Time;durP1;ratioP1;P1;durP2;ratioP2;P2;SDS_P1;SDS_P2;PMS_P1;PMS_P2;Temp;Humidity;BMP_temperature;BMP_pressure;BME280_temperature;BME280_humidity;BME280_pressure;Samples;Min_cycle;Max_cycle;Signal;HPM_P1;HPM_P2
2020/12/03 08:00:47;;;;;;;56.50;35.88;;;;;;;4.80;56.15;94115.13;5056303;27;915056;-81
2020/12/03 08:03:42;;;;;;;54.95;32.83;;;;;;;4.83;56.10;94124.34;5034809;28;20499;-85
2020/12/03 08:09:23;;;;;;;54.28;34.85;;;;;;;5.07;55.84;94115.19;5000842;28;20107;-86
2020/12/03 08:12:00;;;;;;;55.67;34.35;;;;;;;5.04;55.48;94110.41;5044410;28;20036;-85
2020/12/03 08:15:25;;;;;;;65.20;38.97;;;;;;;4.99;55.49;94081.53;5026486;28;20026;-85
2020/12/03 08:17:50;;;;;;;54.03;35.25;;;;;;;5.19;54.79;94097.47;4933917;28;20867;-83
2020/12/03 08:20:44;;;;;;;54.60;35.47;;;;;;;5.22;55.12;94073.41;5063563;28;20756;-85
2020/12/03 08:23:18;;;;;;;56.85;35.28;;;;;;;5.60;54.64;94115.16;5024470;28;20042;-85
2020/12/03 08:25:49;;;;;;;59.05;36.38;;;;;;;5.45;54.20;94091.44;5019875;28;20040;-85
2020/12/03 08:28:23;;;;;;;59.78;37.22;;;;;;;5.45;54.36;94080.94;4969065;28;20129;-85
2020/12/03 08:30:55;;;;;;;58.00;37.75;;;;;;;5.66;54.38;94124.66;5019863;28;20071;-84
2020/12/03 08:33:50;;;;;;;55.85;34.85;;;;;;;5.60;54.64;94091.56;5025301;28;20076;-85
2020/12/03 08:36:28;;;;;;;54.60;36.05;;;;;;;5.72;54.18;94080.88;4980447;28;20835;-84
2020/12/03 08:38:59;;;;;;;52.22;35.50;;;;;;;5.98;53.74;94100.25;5007440;28;20021;-84
2020/12/03 08:41:27;;;;;;;60.72;38.17;;;;;;;6.04;53.34;94100.03;5027601;28;20017;-84
2020/12/03 08:44:02;;;;;;;54.90;34.88;;;;;;;6.03;53.23;94097.66;5007181;28;20128;-84
2020/12/03 08:46:32;;;;;;;62.85;37.22;;;;;;;6.16;53.72;94097.22;5010452;28;20037;-83
2020/12/03 08:48:58;;;;;;;67.57;41.65;;;;;;;6.24;53.79;94109.88;5007170;28;20030;-82
2020/12/03 08:51:23;;;;;;;259.30;135.02;;;;;;;6.06;53.64;94094.50;5009675;28;20402;-83
2020/12/03 08:53:52;;;;;;;66.05;40.95;;;;;;;6.21;53.48;94104.31;5005157;28;20022;-80
2020/12/03 08:56:17;;;;;;;99.70;54.83;;;;;;;6.22;53.09;94111.94;5009935;28;20034;-80
2020/12/03 08:59:01;;;;;;;124.85;67.80;;;;;;;6.29;53.32;94107.28;5004841;28;20135;-80
2020/12/03 09:01:46;;;;;;;86.43;52.40;;;;;;;6.30;53.11;94106.25;5000514;28;20042;-79
2020/12/03 09:04:26;;;;;;;72.05;46.55;;;;;;;6.32;52.82;94098.88;4997199;28;20045;-82
2020/12/03 09:06:56;;;;;;;65.82;42.53;;;;;;;6.51;53.08;94100.03;5003597;28;20525;-82
2020/12/03 09:09:24;;;;;;;55.03;37.88;;;;;;;6.64;53.07;94103.25;5023370;28;20053;-83
2020/12/03 09:11:51;;;;;;;53.40;33.72;;;;;;;6.67;52.39;94094.84;4989356;28;20025;-82
2020/12/03 09:14:17;;;;;;;219.68;107.50;;;;;;;6.77;52.36;94105.41;4991791;28;20401;-81
2020/12/03 09:16:45;;;;;;;110.32;58.33;;;;;;;6.82;52.13;94102.78;4992694;28;20042;-82
2020/12/03 09:19:10;;;;;;;75.40;41.13;;;;;;;6.98;51.40;94093.91;4989910;28;20502;-82
2020/12/03 09:21:38;;;;;;;56.33;33.50;;;;;;;7.12;51.48;94089.75;4995103;28;20046;-81
2020/12/03 09:24:05;;;;;;;58.97;36.72;;;;;;;7.24;51.30;94095.53;4986707;28;20519;-80
2020/12/03 09:26:34;;;;;;;88.78;46.97;;;;;;;7.02;51.39;94073.94;4995477;28;20475;-80
2020/12/03 09:29:02;;;;;;;82.75;47.78;;;;;;;7.05;51.51;94088.41;4991263;28;20406;-80
2020/12/03 09:31:34;;;;;;;66.78;38.38;;;;;;;7.14;51.59;94085.00;4989918;28;20565;-80
2020/12/03 09:34:00;;;;;;;55.28;33.63;;;;;;;7.19;51.12;94073.72;4986634;28;20400;-82
2020/12/03 09:36:25;;;;;;;61.05;35.95;;;;;;;7.31;50.99;94082.16;4992308;28;20070;-80
2020/12/03 09:38:57;;;;;;;79.47;44.13;;;;;;;7.38;50.81;94080.03;4988399;28;20057;-79
2020/12/03 09:41:23;;;;;;;57.55;36.25;;;;;;;7.42;51.04;94077.69;5006606;28;20537;-79
2020/12/03 09:43:56;;;;;;;56.00;35.75;;;;;;;7.37;51.96;94068.75;4994028;28;20112;-79
2020/12/03 09:46:28;;;;;;;91.57;50.00;;;;;;;7.45;51.96;94066.66;4988636;28;20153;-81
2020/12/03 09:48:55;;;;;;;72.57;41.10;;;;;;;7.45;51.78;94071.91;4994094;28;20065;-79
2020/12/03 09:51:22;;;;;;;61.97;35.75;;;;;;;7.54;51.45;94065.06;4989886;28;20108;-79
2020/12/03 09:53:49;;;;;;;60.20;36.78;;;;;;;7.64;50.82;94071.13;4992588;28;20033;-79
2020/12/03 09:56:15;;;;;;;66.20;37.72;;;;;;;7.75;50.20;94056.13;4994424;28;20136;-79
2020/12/03 09:58:40;;;;;;;65.13;40.20;;;;;;;7.77;50.72;94056.69;4993639;28;22104;-80
2020/12/03 10:01:07;;;;;;;61.88;37.78;;;;;;;7.82;50.62;94056.66;4997294;28;20069;-81
2020/12/03 10:03:45;;;;;;;60.33;37.25;;;;;;;7.89;50.05;94049.28;4949921;28;20049;-84
2020/12/03 10:06:35;;;;;;;67.18;39.15;;;;;;;7.91;50.12;94044.56;4975948;28;20128;-79
2020/12/03 10:09:37;;;;;;;61.42;40.35;;;;;;;8.08;49.99;94049.50;4981935;28;20070;-79
2020/12/03 10:12:02;;;;;;;73.45;43.25;;;;;;;8.10;49.98;94039.50;4981916;28;20085;-79
2020/12/03 10:14:53;;;;;;;61.90;39.17;;;;;;;8.11;50.59;94035.84;4984977;28;20491;-80
2020/12/03 10:17:48;;;;;;;69.68;44.78;;;;;;;8.14;49.82;94032.66;4989643;28;20042;-80
2020/12/03 10:20:14;;;;;;;60.13;37.20;;;;;;;8.28;49.69;94033.66;4965959;28;20132;-79
2020/12/03 10:23:14;;;;;;;66.45;40.15;;;;;;;8.37;49.68;94036.56;4982201;28;20126;-78
2020/12/03 10:25:41;;;;;;;63.10;38.20;;;;;;;8.44;48.95;94026.53;4978865;28;20057;-80
2020/12/03 10:28:29;;;;;;;59.17;38.05;;;;;;;8.60;48.58;94025.44;4995850;28;20022;-80
2020/12/03 10:30:56;;;;;;;56.60;36.60;;;;;;;8.76;48.68;94011.09;4986553;28;20042;-80
2020/12/03 10:33:26;;;;;;;114.15;68.15;;;;;;;8.72;48.91;94007.44;4992884;28;20034;-80
2020/12/03 10:35:55;;;;;;;91.72;55.30;;;;;;;8.75;48.79;94014.78;4992390;28;20049;-81
2020/12/03 10:38:56;;;;;;;263.92;147.00;;;;;;;8.76;48.41;94013.75;4991368;28;20121;-80
2020/12/03 10:41:29;;;;;;;85.18;52.15;;;;;;;8.80;48.37;94001.59;4968427;28;20057;-80
2020/12/03 10:44:02;;;;;;;60.60;40.85;;;;;;;8.89;48.19;94004.47;4986765;28;20042;-80
2020/12/03 10:46:30;;;;;;;64.63;40.53;;;;;;;9.00;48.26;93996.22;4995520;28;20040;-81
2020/12/03 10:48:59;;;;;;;57.78;39.20;;;;;;;9.16;47.97;94006.66;4989235;28;20491;-79
2020/12/03 10:51:25;;;;;;;121.57;69.05;;;;;;;9.18;47.58;94009.81;4996951;28;20061;-80
2020/12/03 10:53:52;;;;;;;63.97;40.92;;;;;;;9.27;47.57;94000.25;4994090;28;20494;-79
2020/12/03 10:56:26;;;;;;;75.40;45.05;;;;;;;9.20;47.31;93970.78;4980376;28;20111;-80
2020/12/03 10:59:08;;;;;;;104.68;61.45;;;;;;;9.25;47.53;93989.19;4988522;28;20042;-80
2020/12/03 11:01:34;;;;;;;99.38;57.17;;;;;;;9.23;47.46;93976.31;4985749;28;20057;-81
2020/12/03 11:04:10;;;;;;;134.23;76.78;;;;;;;9.32;47.70;93973.84;4986734;28;20047;-81
2020/12/03 11:06:36;;;;;;;64.72;39.75;;;;;;;9.33;47.13;93976.22;4987252;28;20042;-82
2020/12/03 11:09:04;;;;;;;62.83;38.30;;;;;;;9.25;47.30;93968.09;4985366;28;20513;-82
2020/12/03 11:11:36;;;;;;;65.10;42.10;;;;;;;9.55;48.17;93978.41;4956723;28;20053;-82
2020/12/03 11:14:08;;;;;;;63.60;38.97;;;;;;;9.63;47.82;93972.50;4990852;28;20043;-83
2020/12/03 11:16:37;;;;;;;61.30;39.92;;;;;;;9.82;46.88;93977.91;5001348;28;20033;-82
2020/12/03 11:19:08;;;;;;;101.65;64.10;;;;;;;9.97;46.50;93970.59;4989836;28;20022;-82
2020/12/03 11:21:38;;;;;;;74.55;47.63;;;;;;;9.99;46.04;93962.41;4990615;28;20056;-82
2020/12/03 11:24:11;;;;;;;63.75;39.55;;;;;;;10.08;46.50;93958.09;4986474;28;20113;-83
2020/12/03 11:26:41;;;;;;;68.88;43.40;;;;;;;10.27;46.05;93958.16;5002338;28;20042;-82
2020/12/03 11:29:14;;;;;;;59.85;38.95;;;;;;;10.27;45.77;93950.22;4991358;28;20041;-81
2020/12/03 11:31:40;;;;;;;61.70;39.20;;;;;;;10.31;45.51;93948.63;4989526;28;20041;-82
2020/12/03 11:34:07;;;;;;;70.40;41.50;;;;;;;10.42;45.49;93945.56;4990894;28;20804;-81
2020/12/03 11:36:35;;;;;;;62.78;40.78;;;;;;;10.34;45.55;93937.47;5003731;28;20042;-81
2020/12/03 11:39:02;;;;;;;64.07;39.80;;;;;;;10.37;45.53;93942.97;4988547;28;20057;-82
2020/12/03 11:49:42;;;;;;;57.05;37.30;;;;;;;10.31;45.98;93919.56;4981162;28;20032;-82
2020/12/03 11:52:16;;;;;;;60.08;39.03;;;;;;;10.35;45.96;93920.56;4995662;28;20033;-82
2020/12/03 11:54:43;;;;;;;61.85;38.50;;;;;;;10.33;46.00;93925.34;4989223;28;20487;-82
2020/12/03 11:57:09;;;;;;;59.83;38.53;;;;;;;10.22;46.01;93929.16;4990858;28;20210;-82
2020/12/03 11:59:36;;;;;;;65.20;41.63;;;;;;;10.19;46.49;93913.91;4984703;28;20058;-81
2020/12/03 12:02:06;;;;;;;68.18;41.00;;;;;;;10.17;46.52;93913.38;4990096;28;20411;-82
2020/12/03 12:05:00;;;;;;;65.03;38.85;;;;;;;10.02;46.37;93903.00;5005360;28;20022;-81
2020/12/03 12:12:34;;;;;;;64.50;39.95;;;;;;;9.94;47.19;93907.81;4987694;28;20070;-81
2020/12/03 12:14:59;;;;;;;62.90;38.92;;;;;;;9.86;47.05;93900.53;4987520;28;20186;-80
2020/12/03 12:17:25;;;;;;;62.83;40.15;;;;;;;9.87;47.19;93907.34;4987654;28;20049;-82
2020/12/03 12:19:54;;;;;;;66.57;40.58;;;;;;;9.84;47.31;93915.06;4984774;28;20042;-82
2020/12/03 12:22:19;;;;;;;66.78;41.65;;;;;;;9.75;47.64;93914.88;4991065;28;20509;-83
2020/12/03 12:24:46;;;;;;;61.17;38.78;;;;;;;9.52;47.42;93899.81;4985073;28;20069;-84
2020/12/03 12:27:13;;;;;;;65.32;40.58;;;;;;;9.53;47.75;93901.38;4992660;28;20448;-84
2020/12/03 12:29:39;;;;;;;60.38;38.63;;;;;;;9.46;48.17;93900.94;4987098;28;20619;-84
2020/12/03 12:32:05;;;;;;;62.47;41.47;;;;;;;9.41;47.93;93898.34;4992675;28;20068;-82
2020/12/03 12:34:32;;;;;;;65.18;41.08;;;;;;;9.40;48.36;93894.13;4987418;28;20034;-83
2020/12/03 12:36:59;;;;;;;64.50;40.78;;;;;;;9.42;48.65;93894.66;4989996;28;20030;-84
2020/12/03 12:39:25;;;;;;;82.00;60.50;;;;;;;9.44;48.66;93884.59;4991028;28;20034;-82
2020/12/03 12:42:02;;;;;;;61.78;41.13;;;;;;;9.43;48.88;93875.13;4982316;28;20039;-81
2020/12/03 12:44:29;;;;;;;59.35;39.80;;;;;;;9.41;48.70;93883.31;4988492;28;20038;-82
2020/12/03 12:46:56;;;;;;;61.92;40.15;;;;;;;9.40;49.04;93880.94;4988689;28;20077;-81
2020/12/03 12:49:22;;;;;;;67.32;42.78;;;;;;;9.38;50.45;93885.72;4997430;28;20015;-83
2020/12/03 12:51:47;;;;;;;69.10;43.47;;;;;;;9.29;50.68;93874.19;4985769;28;20602;-83
2020/12/03 12:54:13;;;;;;;70.45;42.10;;;;;;;9.40;51.36;93892.28;4994635;28;20034;-80
2020/12/03 12:56:39;;;;;;;64.80;41.03;;;;;;;9.29;51.42;93890.00;4994274;28;20518;-81
2020/12/03 12:59:05;;;;;;;63.88;40.20;;;;;;;9.19;51.71;93895.38;4991261;28;20081;-81
2020/12/03 13:01:30;;;;;;;65.70;43.33;;;;;;;9.16;51.78;93901.19;4989580;28;20057;-81
2020/12/03 13:03:55;;;;;;;70.25;43.20;;;;;;;9.15;52.07;93892.50;4989743;28;20554;-80
2020/12/03 13:06:21;;;;;;;84.88;53.00;;;;;;;9.08;51.77;93879.66;4997383;28;20053;-80
2020/12/03 13:08:46;;;;;;;96.05;55.88;;;;;;;9.12;52.13;93885.94;4993841;28;20132;-79
2020/12/03 13:11:12;;;;;;;163.25;104.63;;;;;;;9.05;52.43;93893.38;4995945;28;20116;-80
2020/12/03 13:13:37;;;;;;;134.13;85.72;;;;;;;9.01;52.71;93884.44;4994586;28;20029;-83
2020/12/03 13:16:03;;;;;;;107.82;68.28;;;;;;;8.92;53.05;93874.78;4993277;28;20032;-85
2020/12/03 13:18:29;;;;;;;86.38;54.08;;;;;;;8.79;54.01;93873.56;4989975;28;20053;-86
2020/12/03 13:20:54;;;;;;;104.75;67.43;;;;;;;8.69;53.49;93871.00;4985797;28;20043;-85
2020/12/03 13:23:20;;;;;;;117.03;76.13;;;;;;;8.79;53.54;93876.19;4993611;28;20038;-86
2020/12/03 13:25:45;;;;;;;117.15;76.47;;;;;;;8.67;53.95;93858.09;4992973;28;20103;-86
2020/12/03 13:28:11;;;;;;;86.43;59.20;;;;;;;8.74;54.43;93867.53;4999131;28;20100;-86
2020/12/03 13:30:36;;;;;;;86.50;53.85;;;;;;;8.80;54.16;93859.31;4990187;28;20042;-84
2020/12/03 13:33:02;;;;;;;110.50;63.20;;;;;;;8.75;52.63;93864.59;4949950;28;20062;-85
2020/12/03 13:35:27;;;;;;;94.65;59.40;;;;;;;8.78;53.27;93869.34;4994196;28;20052;-85
2020/12/03 13:37:52;;;;;;;85.85;53.72;;;;;;;8.82;53.74;93870.38;5006697;28;20021;-84
2020/12/03 13:40:21;;;;;;;84.85;53.47;;;;;;;8.81;54.10;93860.09;4992613;28;20100;-84
2020/12/03 13:42:47;;;;;;;99.72;64.97;;;;;;;8.84;54.09;93868.25;4989954;28;20030;-86
2020/12/03 13:45:12;;;;;;;97.15;60.35;;;;;;;8.76;54.17;93871.47;4997333;28;20038;-85
2020/12/03 13:47:38;;;;;;;84.68;53.70;;;;;;;8.62;54.22;93860.75;4995485;28;20922;-85
2020/12/03 13:50:03;;;;;;;77.95;50.35;;;;;;;8.75;54.43;93880.41;4990438;28;20117;-84
2020/12/03 13:52:29;;;;;;;86.50;52.50;;;;;;;8.72;54.37;93873.06;4990315;28;20379;-85
2020/12/03 13:54:55;;;;;;;85.07;51.40;;;;;;;8.66;53.94;93867.06;5004931;28;20559;-83
2020/12/03 13:57:20;;;;;;;94.80;58.13;;;;;;;8.78;54.32;93879.88;4989643;28;20042;-83
2020/12/03 13:59:46;;;;;;;86.78;51.53;;;;;;;8.64;54.05;93871.81;4993453;28;20101;-84
2020/12/03 14:02:15;;;;;;;89.47;54.97;;;;;;;8.60;53.88;93878.69;4987922;28;20402;-85
2020/12/03 14:04:40;;;;;;;88.20;52.08;;;;;;;8.64;54.28;93868.41;4992301;28;20070;-84
2020/12/03 14:07:06;;;;;;;108.57;62.78;;;;;;;8.53;54.33;93845.81;5003118;28;20491;-84
2020/12/03 14:09:32;;;;;;;77.57;46.58;;;;;;;8.53;53.85;93848.44;4993267;28;20030;-83
2020/12/03 14:11:57;;;;;;;86.97;49.28;;;;;;;8.45;53.55;93843.78;4989106;28;20109;-85
2020/12/03 14:14:23;;;;;;;101.20;60.22;;;;;;;8.54;54.29;93860.56;4989353;28;20108;-85
2020/12/03 14:16:48;;;;;;;87.75;56.25;;;;;;;8.44;54.53;93856.16;4991767;28;20041;-84
2020/12/03 14:19:16;;;;;;;93.82;58.75;;;;;;;8.61;54.57;93868.94;4988886;28;20132;-82
2020/12/03 14:21:42;;;;;;;89.93;56.97;;;;;;;8.53;54.58;93877.41;4988496;28;20406;-84
2020/12/03 14:24:07;;;;;;;86.50;56.08;;;;;;;8.50;54.64;93873.47;4988537;28;20038;-81
2020/12/03 14:26:33;;;;;;;80.28;54.42;;;;;;;8.48;54.80;93874.81;4988369;28;20046;-83
2020/12/03 14:28:58;;;;;;;63.65;43.42;;;;;;;8.42;54.41;93854.84;4986375;28;20452;-82
2020/12/03 14:31:24;;;;;;;56.50;35.25;;;;;;;8.45;53.62;93865.63;4989431;28;20025;-82
2020/12/03 14:33:49;;;;;;;47.72;31.15;;;;;;;8.31;54.22;93863.88;4987127;28;20042;-82
2020/12/03 14:36:16;;;;;;;49.22;30.10;;;;;;;8.35;54.11;93862.28;4987869;28;20054;-83
2020/12/03 14:38:41;;;;;;;43.33;29.15;;;;;;;8.28;53.95;93858.06;4986887;28;20049;-84
2020/12/03 14:41:07;;;;;;;42.30;28.70;;;;;;;8.19;53.71;93843.91;4987514;28;20033;-81
2020/12/03 14:43:32;;;;;;;41.30;27.10;;;;;;;8.18;53.75;93852.06;4989331;28;20524;-83
2020/12/03 14:45:58;;;;;;;45.67;27.75;;;;;;;8.17;53.56;93853.91;4989085;28;20085;-82
2020/12/03 14:48:23;;;;;;;41.55;27.90;;;;;;;8.07;53.33;93848.69;4987548;28;20490;-81
2020/12/03 14:50:49;;;;;;;47.08;31.35;;;;;;;8.04;53.81;93843.19;4986588;28;20041;-81
2020/12/03 14:53:17;;;;;;;52.53;35.03;;;;;;;8.02;53.92;93845.28;4989469;28;20430;-82
2020/12/03 14:55:51;;;;;;;43.97;29.73;;;;;;;7.86;54.24;93847.22;5002534;28;20397;-82
2020/12/03 14:58:22;;;;;;;50.75;30.38;;;;;;;7.76;54.60;93853.31;4987111;28;20158;-83
2020/12/03 15:00:47;;;;;;;52.63;32.63;;;;;;;7.69;54.58;93858.06;4982450;28;20449;-84
2020/12/03 15:03:13;;;;;;;51.70;32.42;;;;;;;7.59;54.59;93857.31;4987679;28;20053;-87
2020/12/03 15:05:38;;;;;;;55.42;35.65;;;;;;;7.58;54.48;93866.25;4987454;28;20053;-87
2020/12/03 15:08:06;;;;;;;61.22;35.53;;;;;;;7.49;55.16;93867.84;4985573;28;20066;-86
2020/12/03 15:10:35;;;;;;;54.55;31.88;;;;;;;7.25;55.36;93841.38;4997094;28;20362;-85
2020/12/03 15:13:01;;;;;;;66.65;40.33;;;;;;;7.22;55.55;93855.84;4985644;28;20538;-84
2020/12/03 15:15:26;;;;;;;54.58;35.90;;;;;;;7.20;55.71;93862.41;4979222;28;20050;-83
2020/12/03 15:17:52;;;;;;;50.83;33.55;;;;;;;7.18;55.61;93857.44;4992394;28;20045;-88
2020/12/03 15:20:17;;;;;;;54.45;34.03;;;;;;;7.06;55.99;93843.78;4968247;28;20042;-87
2020/12/03 15:22:43;;;;;;;46.97;29.27;;;;;;;7.04;56.02;93856.38;4989150;28;20729;-88
2020/12/03 15:25:08;;;;;;;53.40;32.88;;;;;;;7.06;55.82;93864.00;4984781;28;20049;-87
2020/12/03 15:27:34;;;;;;;48.13;30.63;;;;;;;6.93;55.32;93844.31;4989616;28;20052;-88
2020/12/03 15:30:00;;;;;;;41.28;27.63;;;;;;;6.93;55.73;93845.09;4982187;28;20045;-81
2020/12/03 15:32:25;;;;;;;41.15;26.45;;;;;;;7.00;55.88;93859.78;4988995;28;20030;-82
2020/12/03 15:34:51;;;;;;;32.10;20.88;;;;;;;7.00;55.48;93854.53;4985763;28;20030;-81
2020/12/03 15:37:17;;;;;;;34.17;22.23;;;;;;;6.95;55.58;93844.81;4987440;28;20046;-81
2020/12/03 15:39:42;;;;;;;40.95;26.80;;;;;;;6.87;55.95;93835.66;4981162;28;20048;-87
2020/12/03 15:42:16;;;;;;;48.90;28.90;;;;;;;6.93;55.58;93839.06;4984127;28;20136;-86
2020/12/03 15:44:43;;;;;;;45.72;28.17;;;;;;;6.87;55.48;93837.50;4986504;28;20042;-85
2020/12/03 15:47:09;;;;;;;39.22;25.75;;;;;;;6.79;55.95;93843.28;4984717;28;20030;-85
2020/12/03 15:49:36;;;;;;;36.88;24.73;;;;;;;6.79;55.82;93841.41;4987842;28;20104;-87
2020/12/03 15:52:01;;;;;;;32.70;24.08;;;;;;;6.73;55.78;93842.50;4989910;28;20045;-83
2020/12/03 15:54:27;;;;;;;36.70;25.40;;;;;;;6.66;55.88;93847.22;4985857;28;20042;-83
2020/12/03 15:56:52;;;;;;;38.28;26.27;;;;;;;6.48;56.09;93827.53;4988315;28;20045;-83
2020/12/03 15:59:19;;;;;;;65.18;43.13;;;;;;;6.57;56.25;93840.91;4986955;28;20061;-83
2020/12/03 16:01:53;;;;;;;71.85;44.00;;;;;;;6.52;55.92;93839.06;4988502;28;20118;-83
2020/12/03 16:04:19;;;;;;;54.83;33.95;;;;;;;6.38;56.00;93832.75;5003044;28;20473;-83
2020/12/03 16:06:45;;;;;;;44.92;29.02;;;;;;;6.43;56.06;93837.22;4986527;28;20509;-84
2020/12/03 16:09:13;;;;;;;40.15;26.05;;;;;;;6.34;56.37;93834.34;4979982;28;20112;-85
2020/12/03 16:11:38;;;;;;;40.42;26.38;;;;;;;6.29;56.54;93839.56;4984255;28;20039;-84
2020/12/03 16:14:04;;;;;;;42.75;28.85;;;;;;;6.27;56.95;93833.00;4981870;28;20496;-85
2020/12/03 16:16:30;;;;;;;84.50;45.40;;;;;;;6.17;57.24;93833.78;4985706;28;20036;-84
2020/12/03 16:18:56;;;;;;;51.80;31.60;;;;;;;6.17;57.13;93840.84;4985196;28;20089;-81
2020/12/03 16:21:22;;;;;;;50.55;32.08;;;;;;;6.15;57.15;93851.63;4989890;28;20041;-82
2020/12/03 16:23:48;;;;;;;51.53;34.55;;;;;;;5.97;57.62;93842.38;4990512;28;20044;-81
2020/12/03 16:26:14;;;;;;;88.47;42.63;;;;;;;6.04;57.65;93863.13;4992443;28;20026;-84
2020/12/03 16:28:39;;;;;;;68.00;37.00;;;;;;;6.04;57.92;93858.69;4990062;28;20397;-83
2020/12/03 16:31:05;;;;;;;48.13;29.10;;;;;;;5.99;57.87;93856.03;4991400;28;20038;-85
2020/12/03 16:33:31;;;;;;;46.17;28.00;;;;;;;5.93;57.49;93851.03;4984713;28;20579;-84
2020/12/03 16:35:57;;;;;;;43.20;28.85;;;;;;;5.90;57.94;93854.19;4990479;28;20050;-81
2020/12/03 16:38:22;;;;;;;48.28;30.10;;;;;;;5.90;58.17;93856.81;4988240;28;20462;-82
2020/12/03 16:40:53;;;;;;;70.18;41.70;;;;;;;5.88;58.18;93867.53;4989545;28;20022;-81
2020/12/03 16:43:19;;;;;;;60.75;37.78;;;;;;;5.86;58.28;93871.44;4985517;28;20132;-81
2020/12/03 16:45:45;;;;;;;54.42;34.20;;;;;;;5.87;58.27;93873.81;4983836;28;20430;-81
2020/12/03 16:48:10;;;;;;;57.40;39.10;;;;;;;5.82;58.26;93867.75;4988274;28;20121;-81
2020/12/03 16:50:36;;;;;;;63.83;40.28;;;;;;;5.72;58.57;93852.00;4988941;28;20049;-81
2020/12/03 16:53:02;;;;;;;79.00;49.28;;;;;;;5.82;58.52;93865.13;4990309;28;20483;-81
2020/12/03 16:55:27;;;;;;;58.17;36.90;;;;;;;5.80;58.38;93856.75;5006038;28;20026;-81
2020/12/03 16:57:52;;;;;;;66.57;41.83;;;;;;;5.81;58.12;93858.31;4988055;28;20046;-81
2020/12/03 17:00:18;;;;;;;60.40;33.83;;;;;;;5.75;57.95;93846.22;4987820;28;20052;-81
2020/12/03 17:02:44;;;;;;;64.88;39.83;;;;;;;5.77;57.69;93854.59;4983826;28;20061;-81
2020/12/03 17:05:09;;;;;;;65.30;39.17;;;;;;;5.74;57.87;93849.88;4988515;28;20026;-81
2020/12/03 17:07:35;;;;;;;63.17;40.03;;;;;;;5.77;57.95;93846.75;4993139;28;20103;-81
2020/12/03 17:10:01;;;;;;;79.68;49.25;;;;;;;5.72;57.93;93842.28;4991086;28;20765;-81
2020/12/03 17:12:26;;;;;;;108.00;63.50;;;;;;;5.77;57.83;93842.28;4990806;28;20057;-80
2020/12/03 17:14:52;;;;;;;84.45;53.00;;;;;;;5.75;57.53;93854.09;4989662;28;20493;-81
2020/12/03 17:17:17;;;;;;;56.95;36.08;;;;;;;5.64;57.34;93848.03;4985237;28;22660;-81
2020/12/03 17:19:45;;;;;;;59.15;36.90;;;;;;;5.66;57.36;93844.13;5003274;28;20025;-81
2020/12/03 17:22:12;;;;;;;76.45;45.05;;;;;;;5.66;57.45;93835.44;4985180;28;20042;-81
2020/12/03 17:24:38;;;;;;;66.70;38.35;;;;;;;5.60;57.44;93836.47;4983441;28;20069;-81
2020/12/03 17:27:04;;;;;;;95.43;53.97;;;;;;;5.62;57.21;93835.16;4987028;28;20049;-80
2020/12/03 17:29:30;;;;;;;133.98;74.90;;;;;;;5.58;57.10;93838.56;4987167;28;20041;-81
2020/12/03 17:31:56;;;;;;;87.10;50.78;;;;;;;5.49;57.92;93830.41;4989091;28;20034;-80
2020/12/03 17:34:23;;;;;;;79.90;48.65;;;;;;;5.54;57.86;93840.91;4986867;28;20069;-81
2020/12/03 17:36:49;;;;;;;84.47;54.50;;;;;;;5.49;58.23;93833.03;4985779;28;20113;-80
2020/12/03 17:39:14;;;;;;;78.95;48.38;;;;;;;5.54;58.25;93832.25;4982677;28;21013;-80
2020/12/03 17:41:40;;;;;;;70.07;42.85;;;;;;;5.50;57.55;93831.19;4989144;28;20041;-80
2020/12/03 17:44:06;;;;;;;64.82;39.97;;;;;;;5.50;57.46;93834.59;4984662;28;20060;-80
2020/12/03 17:46:31;;;;;;;67.53;40.25;;;;;;;5.48;57.61;93834.06;4990454;28;20021;-79
2020/12/03 17:48:57;;;;;;;67.10;40.35;;;;;;;5.48;57.34;93838.50;4983538;28;20034;-80
2020/12/03 17:51:22;;;;;;;68.65;42.33;;;;;;;5.43;57.65;93835.84;4991217;28;20096;-80
2020/12/03 17:53:48;;;;;;;74.32;44.65;;;;;;;5.39;57.68;93821.69;4981094;28;20414;-80
2020/12/03 17:56:13;;;;;;;84.68;51.60;;;;;;;5.36;58.34;93819.59;5000484;28;20494;-80
2020/12/03 17:58:39;;;;;;;69.72;44.17;;;;;;;5.30;58.14;93810.91;4986858;28;20033;-80
2020/12/03 18:01:04;;;;;;;69.07;42.75;;;;;;;5.29;58.02;93814.56;4988564;28;20546;-80
2020/12/03 18:03:30;;;;;;;67.80;39.63;;;;;;;5.27;57.78;93810.66;4982800;28;20077;-80
2020/12/03 18:05:55;;;;;;;59.33;37.78;;;;;;;5.26;57.81;93822.16;4986053;28;20092;-80
2020/12/03 18:08:21;;;;;;;59.53;37.15;;;;;;;5.23;57.80;93815.59;4983524;28;20050;-80
2020/12/03 18:10:46;;;;;;;60.65;37.78;;;;;;;5.19;57.71;93812.69;4988892;28;20097;-80
2020/12/03 18:13:12;;;;;;;70.82;43.72;;;;;;;5.20;57.53;93809.03;4982431;28;20231;-80
2020/12/03 18:15:37;;;;;;;73.82;47.72;;;;;;;5.29;57.08;93819.81;4991017;28;20607;-80
2020/12/03 18:18:03;;;;;;;73.00;46.08;;;;;;;5.24;56.88;93822.41;4988657;28;20304;-80
2020/12/03 18:20:28;;;;;;;69.70;42.97;;;;;;;5.27;56.68;93821.91;4993938;28;20168;-80
2020/12/03 18:22:54;;;;;;;77.13;45.97;;;;;;;5.26;56.81;93804.63;5001524;28;20032;-80
2020/12/03 18:25:19;;;;;;;87.13;52.67;;;;;;;5.18;56.85;93808.50;4991801;28;20031;-80
2020/12/03 18:27:45;;;;;;;69.18;41.92;;;;;;;5.16;57.03;93800.13;4999331;28;20518;-80
2020/12/03 18:30:11;;;;;;;65.45;41.80;;;;;;;5.08;57.33;93803.19;4990689;28;20042;-80
2020/12/03 18:32:36;;;;;;;69.25;41.78;;;;;;;5.10;57.25;93795.09;4985068;28;20057;-80
2020/12/03 18:35:02;;;;;;;59.97;35.10;;;;;;;5.07;57.05;93803.47;4988621;28;20034;-80
2020/12/03 18:37:27;;;;;;;51.67;32.47;;;;;;;4.99;57.20;93804.72;4987818;28;20054;-81
2020/12/03 18:39:53;;;;;;;70.22;43.33;;;;;;;4.99;57.41;93814.41;4990108;28;20486;-80
2020/12/03 18:42:26;;;;;;;60.72;35.33;;;;;;;4.99;57.59;93820.44;4982693;28;20038;-80
2020/12/03 18:44:52;;;;;;;49.75;29.83;;;;;;;5.00;57.42;93816.00;4991892;28;20061;-80
2020/12/03 18:47:17;;;;;;;45.33;29.05;;;;;;;4.92;57.71;93811.25;4985703;28;20486;-80
2020/12/03 18:49:43;;;;;;;49.47;29.48;;;;;;;4.87;57.90;93805.97;4995946;28;20032;-80
2020/12/03 18:52:08;;;;;;;55.85;33.58;;;;;;;4.83;57.94;93786.56;4987042;28;20045;-80
2020/12/03 18:54:34;;;;;;;60.80;38.60;;;;;;;4.89;58.22;93788.19;4989376;28;20453;-80
2020/12/03 18:56:59;;;;;;;54.70;33.97;;;;;;;4.87;58.33;93785.81;4984967;28;20049;-80
2020/12/03 18:59:25;;;;;;;48.45;30.67;;;;;;;4.83;57.95;93786.56;4992099;28;20057;-80
2020/12/03 19:01:51;;;;;;;46.67;30.08;;;;;;;4.79;58.07;93781.81;4988723;28;20026;-80
2020/12/03 19:04:17;;;;;;;48.05;30.42;;;;;;;4.85;57.96;93787.09;5005131;28;20861;-80
2020/12/03 19:06:42;;;;;;;50.92;32.50;;;;;;;4.83;58.37;93783.97;4982649;28;20144;-80
2020/12/03 19:09:09;;;;;;;57.90;36.30;;;;;;;4.82;58.03;93785.78;4987908;28;20040;-80
2020/12/03 19:11:40;;;;;;;55.80;35.08;;;;;;;4.84;58.14;93791.53;4996041;28;20046;-80
2020/12/03 19:14:08;;;;;;;70.95;43.25;;;;;;;4.83;58.22;93794.44;4985412;28;20157;-80
2020/12/03 19:16:36;;;;;;;75.68;46.95;;;;;;;4.84;58.52;93793.41;4984255;28;20495;-80
2020/12/03 19:19:02;;;;;;;84.93;51.22;;;;;;;4.85;58.63;93787.09;4989269;28;20061;-79
2020/12/03 19:21:27;;;;;;;91.60;57.00;;;;;;;4.82;58.53;93788.41;4979785;28;20133;-80
2020/12/03 19:23:53;;;;;;;93.82;58.53;;;;;;;4.82;58.62;93782.38;4984439;28;20062;-80
2020/12/03 19:26:20;;;;;;;97.38;59.17;;;;;;;4.82;58.90;93798.09;4981052;28;20078;-80
2020/12/03 19:28:47;;;;;;;91.78;57.83;;;;;;;4.79;58.85;93794.91;4985473;28;20062;-80
2020/12/03 19:31:12;;;;;;;87.10;55.30;;;;;;;4.88;58.29;93797.09;4982290;28;20042;-80
2020/12/03 19:33:38;;;;;;;83.57;51.65;;;;;;;4.90;58.41;93790.53;4980964;28;20041;-80
2020/12/03 19:36:04;;;;;;;81.30;50.13;;;;;;;4.89;58.18;93793.44;4980881;28;20069;-80
2020/12/03 19:38:33;;;;;;;75.93;47.63;;;;;;;4.88;58.26;93784.00;4979842;28;20042;-80
2020/12/03 19:41:00;;;;;;;85.82;50.92;;;;;;;4.86;58.56;93788.69;4981766;28;20030;-80
2020/12/03 19:43:25;;;;;;;86.38;52.20;;;;;;;4.82;58.50;93779.75;4983332;28;20469;-80
2020/12/03 19:45:50;;;;;;;80.43;49.53;;;;;;;4.79;58.47;93786.28;4984084;28;20049;-80